Namaka, Canada
Current Conditions -  °F | °C
As of 6:00 AM on Friday 31 Oct 2014 (Local Time) from CYYC Reporting Station
Broken Clouds Broken Clouds  
Wind Chill: 38°   Ceiling: 14000
Heat Index: 43°   Visibility: 15mi
Dew Point: 34°   Wind: 8mph
Humidity: 70%   Direction: 210°SSW
Pressure: 29.68"   Gusts: NA
Location:  50.96°N, 113.29°W
Report Text: CYYC 311200Z 21007KT 15SM BKN140 06/01 A2968 RMK AC6 SLP079
Loading
Personal Weather Stations






























Interactive Weather Map
Tropical Storm Tracking
New forecast layout! Learn more

10-Day Weather Forecast

Advertisements
Track Severe Weather on mobile